x

Isle Of Shoals, Nh (iosn3) Weather Station

8:00pm - Mon 20th Aug 2018 All times are EDT. -4 hours from GMT.

  • Wind
    9mph, 10mph gusts
  • Air Temp 65°f
  • Sea Pressure 1021.2mb
  • Isle Of Shoals, Nh
  • Isle Of Shoals, Nh

More Historic Weather Station data

Upgrade to MSW Pro to gain access to the past 30 days of data for over 8000 Wavebouys and Weather Stations around the globe.

Join

Comparision Forecast

View Surf forecast
   
Mon 08/20 8:00pm 9 10 mph 1021.2mb 65f
7:00pm 7 8 mph 1020.9mb 65f
6:00pm 6 7 mph 1021.1mb 66f
5:00pm 8 9 mph 1021.2mb 66f
4:00pm 8 8 mph 1021.5mb 65f
3:00pm 11 14 mph 1021.4mb 65f
2:00pm 14 16 mph 1021.4mb 65f
1:00pm 13 15 mph 1021.5mb 65f
12:00pm 15 17 mph 1021.8mb 65f
11:00am 16 17 mph 1022.3mb 64f
10:00am 16 18 mph 1022mb 65f
9:00am 21 22 mph 1021.7mb 64f
8:00am 21 23 mph 1021.3mb 65f
7:00am 18 22 mph 1021mb 65f
6:00am 16 17 mph 1020.4mb 64f
5:00am 15 16 mph 1019.8mb 65f
4:00am 15 16 mph 1019.4mb 64f
3:00am 15 17 mph 1019.6mb 64f
2:00am 14 15 mph 1019.7mb 65f
1:00am 13 14 mph 1019.8mb 66f
12:00am 14 15 mph 1019.5mb 66f
Sun 08/19 11:00pm 17 21 mph 1019.1mb 66f
10:00pm 13 15 mph 1019.3mb 67f
9:00pm 15 17 mph 1019.2mb 67f
8:00pm 11 13 mph 1019mb 67f
7:00pm 13 14 mph 1018.3mb 67f
6:00pm 18 20 mph 1017.8mb 67f
5:00pm 14 16 mph 1017.8mb 67f
4:00pm 22 26 mph 1017.2mb 66f
3:00pm 20 21 mph 1017.5mb 65f
2:00pm 22 23 mph 1017.3mb 65f
1:00pm 18 22 mph 1017.4mb 65f
12:00pm 18 21 mph 1017.5mb 64f
11:00am 18 22 mph 1017.3mb 64f
10:00am 21 23 mph 1016.7mb 64f
9:00am 22 24 mph 1015.9mb 65f
8:00am 17 18 mph 1015.5mb 64f
6:00am 16 18 mph 1014.3mb 65f
5:00am 17 20 mph 1013.6mb 65f
4:00am 16 18 mph 1013.2mb 66f
3:00am 14 15 mph 1013.3mb 67f
2:00am 16 18 mph 1012.9mb 67f
1:00am 17 18 mph 1012.7mb 67f
12:00am 18 21 mph 1012.2mb 67f
Sat 08/18 11:00pm 10 11 mph 1012.2mb 66f
10:00pm 14 16 mph 1011.9mb 66f
9:00pm 23 25 mph 1011mb 65f
8:00pm 24 28 mph 1010.2mb 66f
7:00pm 22 24 mph 1009.4mb 68f
6:00pm 25 29 mph 1008.4mb 69f
5:00pm 8 8 mph 1007.7mb 74f
4:00pm 13 14 mph 1007.7mb 74f
3:00pm 7 7 mph 1007.4mb 74f
2:00pm 11 13 mph 1007.6mb 74f
1:00pm 8 9 mph 1007.7mb 74f
12:00pm 8 9 mph 1007.6mb 78f
11:00am 14 15 mph 1007.8mb 75f
10:00am 21 21 mph 1007.9mb 73f
9:00am 21 21 mph 1008mb 72f
8:00am 20 21 mph 1008.2mb 72f
7:00am 17 18 mph 1008.1mb 71f
6:00am 16 17 mph 1008.2mb 72f
5:00am 14 15 mph 1008.4mb 71f
4:00am 21 21 mph 1008.7mb 73f
3:00am 23 24 mph 1009mb 72f
2:00am 14 15 mph 1009.1mb 72f
1:00am 21 22 mph 1011.3mb 75f
12:00am 9 10 mph 1011.6mb 72f
Fri 08/17 11:00pm 9 9 mph 1012.4mb 73f
10:00pm 11 13 mph 1012.7mb 71f
9:00pm 9 9 mph 1012.9mb 71f
8:00pm 10 11 mph 1012.9mb 71f
7:00pm 9 9 mph 1013.6mb 71f
6:00pm 8 10 mph 1014.3mb 69f
5:00pm 6 7 mph 1015.6mb 69f
4:00pm 7 7 mph 1015.7mb 69f
3:00pm 9 9 mph 1016.2mb 69f
2:00pm 8 8 mph 1017.3mb 68f
1:00pm 8 9 mph 1018mb 67f
12:00pm 9 10 mph 1018.4mb 66f
11:00am 10 11 mph 1019mb 67f
10:00am 11 13 mph 1018.7mb 66f
9:00am 11 14 mph 1018.8mb 66f
8:00am 10 13 mph 1018.9mb 66f
7:00am 10 11 mph 1019mb 66f
6:00am 10 11 mph 1019mb 66f
5:00am 9 10 mph 1018.6mb 67f
4:00am 10 11 mph 1018.3mb 68f
3:00am 11 13 mph 1018.4mb 68f
2:00am 10 11 mph 1018.2mb 70f